Alamosa, CO (81101)

2:51 AM MDT on June 27, 2017 (GMT -0600)
Park Ave. neighborhood | | Change Station
Active Advisory: Fire Weather Warning

Elev 7552 ft 37.49 °N, 105.89 °W | Updated 20 seconds ago

Clear
Clear
57.6 °F
Feels Like 57.6 °F
N
3.8
Wind Variable Wind from ENE
Gusts 7.4 mph

Today
High -- | Low -- °F
--% Chance of Precip.
Yesterday
High -- | Low -- °F
Precip. -- in
Pressure 30.00 in
Visibility 10.0 miles
Clouds Clear
Dew Point 37 °F
Humidity 47%
Rainfall 0.00 in
Snow Depth Not available.
5:44 AM 8:28 PM
Waxing Crescent, 15% visible
METAR KALS 270752Z AUTO 14010KT 10SM CLR 12/04 A3029 RMK AO2 SLP159 T01170044 TSNO
Pressure 30.00 in
Visibility 10.0 miles
Clouds Clear
Dew Point 37 °F
Humidity 47%
Rainfall 0.00 in
Snow Depth Not available.
5:44 AM 8:28 PM
Waxing Crescent, 15% visible
METAR KALS 270752Z AUTO 14010KT 10SM CLR 12/04 A3029 RMK AO2 SLP159 T01170044 TSNO

Get Your Daily Forecast Email!

Thanks for signing up!

Be on the lookout for a verification email in your inbox.

You'll start receiving severe weather alerts in your inbox..

×

10-Day Weather Forecast

Almanac

Astronomy

Jun. 27, 2017 Rise Set
Actual Time
Civil Twilight
Nautical Twilight
Astronomical Twilight
Moon
Length of Visible Light
Length of Day
Tomorrow will be .
, % of the Moon is Illuminated

Today's Extremes

State Highs State Lows

Community

WunderPhotos

Category 6

Welcome to Category 6. This is the collective home for Weather Underground's featured writeups by Dr. Jeff Masters (right), Bob Henson (left), Chris Burt, and other regular contributors.

Nearby

Air Quality

  Air Quality AQ Index Pollutant
Not available.

Snow Depth

Station Depth Elevation

Earthquake Activity

City Distance Mag. Time & Date
Minimum magnitude displayed is 2.5.

Coastal Water Temperatures

Place Temperature

Stations

Nearby Weather Stations

Station Location Temp. Windchill Dew Point Humidity Wind Precip. Elev Updated Type
                   

Watches & Warnings

Fire Weather Warning
Issued: 2:52 PM MDT Jun. 26, 2017 – National Weather Service

... Red flag warning in effect from noon to 8 PM MDT Tuesday for
gusty winds... low relative humidity and dry fuels for fire
weather zones 222 and 224...

The National Weather Service in Pueblo has issued a red flag
warning for gusty winds, low relative humidity and dry fuels,
which is in effect from noon to 8 PM MDT Tuesday.

* Affected area... fire weather zones 222 and 224.

* Winds... west 10 to 20 mph with gusts up to 35 mph.

* Relative humidity... 10 to 15 percent.

* Impacts... conditions will be favorable for the rapid ignition,
growth and spread of fires.

Precautionary/preparedness actions...

A red flag warning means that critical fire weather conditions
are either occurring now, or will shortly. A combination of
strong winds, low relative humidity, and warm temperatures can
contribute to extreme fire behavior.